Time;durP1;ratioP1;P1;durP2;ratioP2;P2;SDS_P1;SDS_P2;PMS_P1;PMS_P2;Temp;Humidity;BMP_temperature;BMP_pressure;BME280_temperature;BME280_humidity;BME280_pressure;Samples;Min_cycle;Max_cycle;Signal;HPM_P1;HPM_P2
2024/04/22 00:01:05;;;;;;;5.20;1.80;;;17.60;35.90;;;;;;5452971;26;20579;-66
2024/04/22 00:03:36;;;;;;;3.97;1.40;;;17.60;35.90;;;;;;5452728;26;20251;-67
2024/04/22 00:06:02;;;;;;;4.97;1.70;;;17.60;35.90;;;;;;5452825;26;20670;-65
2024/04/22 00:08:31;;;;;;;5.13;1.88;;;17.60;35.90;;;;;;5452604;26;20820;-62
2024/04/22 00:11:00;;;;;;;4.65;1.55;;;17.60;36.00;;;;;;5452265;26;20548;-67
2024/04/22 00:13:29;;;;;;;4.07;1.60;;;17.60;36.60;;;;;;5452633;26;20243;-62
2024/04/22 00:15:54;;;;;;;3.85;1.63;;;17.60;35.90;;;;;;5453069;26;20251;-63
2024/04/22 00:18:23;;;;;;;5.03;1.30;;;17.60;36.00;;;;;;5453101;26;20240;-63
2024/04/22 00:20:52;;;;;;;4.35;1.90;;;17.60;36.00;;;;;;5452745;26;20216;-62
2024/04/22 00:23:20;;;;;;;4.65;1.40;;;17.60;36.00;;;;;;5452148;26;20698;-64
2024/04/22 00:25:46;;;;;;;2.40;1.25;;;17.60;36.10;;;;;;5451884;26;20710;-63
2024/04/22 00:28:15;;;;;;;3.13;1.40;;;17.60;36.10;;;;;;5451912;26;20227;-65
2024/04/22 00:30:41;;;;;;;6.68;1.38;;;17.60;36.10;;;;;;5452298;26;20227;-63
2024/04/22 00:33:10;;;;;;;3.22;1.27;;;17.60;36.80;;;;;;5452161;26;20279;-65
2024/04/22 00:35:37;;;;;;;6.80;1.60;;;17.60;36.20;;;;;;5452211;26;20216;-63
2024/04/22 00:38:09;;;;;;;2.85;1.40;;;17.60;36.20;;;;;;5452180;26;20335;-66
2024/04/22 00:40:34;;;;;;;4.63;1.30;;;17.60;36.20;;;;;;5452271;26;20211;-62
2024/04/22 00:43:03;;;;;;;2.65;1.35;;;17.60;36.20;;;;;;5451079;26;20228;-63
2024/04/22 00:45:30;;;;;;;3.08;1.50;;;17.60;36.20;;;;;;5452034;26;20342;-64
2024/04/22 00:47:59;;;;;;;3.05;1.38;;;17.50;36.10;;;;;;5452308;26;20301;-64
2024/04/22 00:50:25;;;;;;;5.00;1.35;;;17.60;36.20;;;;;;5452106;26;20275;-64
2024/04/22 00:52:55;;;;;;;4.03;1.33;;;17.50;36.20;;;;;;5455553;26;20270;-63
2024/04/22 00:55:25;;;;;;;3.67;1.48;;;17.50;36.20;;;;;;5455310;26;20274;-64
2024/04/22 00:57:55;;;;;;;4.22;1.38;;;17.50;36.30;;;;;;5454445;26;20227;-64
2024/04/22 01:00:21;;;;;;;5.00;1.45;;;17.50;36.30;;;;;;5455789;26;20278;-63
2024/04/22 01:02:51;;;;;;;4.97;1.55;;;17.50;37.00;;;;;;5455391;26;20327;-63
2024/04/22 01:05:17;;;;;;;3.30;1.65;;;17.50;36.30;;;;;;5455301;26;20287;-65
2024/04/22 01:07:45;;;;;;;3.38;1.23;;;17.50;36.30;;;;;;5455370;26;20340;-62
2024/04/22 01:10:11;;;;;;;2.95;1.13;;;17.50;36.30;;;;;;5455193;26;20243;-63
2024/04/22 01:12:43;;;;;;;3.22;1.42;;;17.50;36.30;;;;;;5454175;26;20219;-62
2024/04/22 01:15:09;;;;;;;3.70;1.25;;;17.50;36.40;;;;;;5455398;26;20227;-63
2024/04/22 01:17:38;;;;;;;3.47;1.50;;;17.50;36.40;;;;;;5455246;26;20269;-67
2024/04/22 01:20:05;;;;;;;4.68;1.73;;;17.50;36.40;;;;;;5454838;26;20262;-63
2024/04/22 01:22:37;;;;;;;3.55;1.23;;;17.50;36.40;;;;;;5455285;26;20220;-65
2024/04/22 01:25:04;;;;;;;5.22;1.83;;;17.50;36.40;;;;;;5455002;26;20640;-64
2024/04/22 01:27:34;;;;;;;3.92;1.52;;;17.50;36.40;;;;;;5454006;26;20235;-64
2024/04/22 01:30:02;;;;;;;3.25;1.40;;;17.60;36.50;;;;;;5454660;26;20231;-66
2024/04/22 01:32:31;;;;;;;5.30;1.52;;;17.50;36.40;;;;;;5455017;26;20216;-64
2024/04/22 01:34:58;;;;;;;4.47;2.05;;;17.50;36.40;;;;;;5454525;26;20284;-64
2024/04/22 01:37:27;;;;;;;4.43;1.48;;;17.50;36.40;;;;;;5455030;26;20328;-64
2024/04/22 01:39:55;;;;;;;5.50;1.50;;;17.50;36.40;;;;;;5454812;26;20570;-65
2024/04/22 01:42:24;;;;;;;3.88;1.48;;;17.50;37.10;;;;;;5453872;26;20686;-65
2024/04/22 01:44:51;;;;;;;2.33;1.17;;;17.50;36.40;;;;;;5454423;26;20231;-61
2024/04/22 01:47:19;;;;;;;4.43;1.48;;;17.50;36.40;;;;;;5454914;26;20228;-67
2024/04/22 01:49:45;;;;;;;3.88;1.52;;;17.50;36.40;;;;;;5454514;26;20310;-62
2024/04/22 01:52:15;;;;;;;3.20;1.50;;;17.50;37.00;;;;;;5454780;26;20744;-63
2024/04/22 01:54:41;;;;;;;4.78;1.45;;;17.50;37.10;;;;;;5454555;26;20232;-65
2024/04/22 01:57:12;;;;;;;4.07;1.70;;;17.50;36.40;;;;;;5453738;26;20614;-63
2024/04/22 01:59:38;;;;;;;3.20;1.30;;;17.50;37.10;;;;;;5454546;26;20228;-62
2024/04/22 02:02:07;;;;;;;4.60;1.25;;;17.50;36.40;;;;;;5454254;26;20276;-67
2024/04/22 02:04:32;;;;;;;3.58;1.30;;;17.50;36.40;;;;;;5454093;26;20568;-61
2024/04/22 02:07:01;;;;;;;4.40;1.48;;;17.50;36.40;;;;;;5454523;26;20223;-63
2024/04/22 02:09:27;;;;;;;1.85;1.20;;;17.50;36.40;;;;;;5454518;26;20231;-64
2024/04/22 02:11:56;;;;;;;4.05;1.73;;;17.50;37.10;;;;;;5453319;26;20258;-64
2024/04/22 02:14:24;;;;;;;3.95;1.48;;;17.50;37.10;;;;;;5454282;26;20232;-65
2024/04/22 02:16:53;;;;;;;4.65;1.40;;;17.50;36.40;;;;;;5454395;26;20567;-61
2024/04/22 02:19:19;;;;;;;3.85;1.50;;;17.50;36.40;;;;;;5454009;26;20271;-63
2024/04/22 02:21:49;;;;;;;3.58;1.60;;;17.40;36.30;;;;;;5454366;26;20220;-63
2024/04/22 02:24:15;;;;;;;3.92;1.40;;;17.40;36.40;;;;;;5454046;26;20231;-62
2024/04/22 02:26:44;;;;;;;3.97;1.35;;;17.40;36.30;;;;;;5453285;26;20284;-63
2024/04/22 02:29:10;;;;;;;4.70;1.40;;;17.40;36.30;;;;;;5454172;26;20231;-66
2024/04/22 02:31:41;;;;;;;2.70;1.13;;;17.40;36.30;;;;;;5454117;26;20258;-65
2024/04/22 02:34:07;;;;;;;2.88;1.30;;;17.40;36.30;;;;;;5453804;26;20235;-67
2024/04/22 02:36:35;;;;;;;2.80;1.40;;;17.40;37.00;;;;;;5454164;26;20262;-65
2024/04/22 02:39:01;;;;;;;6.30;1.63;;;17.40;36.30;;;;;;5454009;26;20738;-61
2024/04/22 02:41:29;;;;;;;3.70;1.27;;;17.40;36.30;;;;;;5452949;26;20228;-66
2024/04/22 02:43:55;;;;;;;6.35;1.50;;;17.40;36.30;;;;;;5453906;26;20266;-62
2024/04/22 02:46:24;;;;;;;3.78;1.40;;;17.40;36.30;;;;;;5453947;26;20232;-63
2024/04/22 02:48:53;;;;;;;2.15;1.33;;;17.40;36.30;;;;;;5453538;26;20295;-64
2024/04/22 02:51:21;;;;;;;3.70;1.35;;;17.40;37.00;;;;;;5453909;26;20714;-63
2024/04/22 02:53:47;;;;;;;2.63;1.33;;;17.40;36.30;;;;;;5453723;26;20282;-67
2024/04/22 02:56:16;;;;;;;2.30;1.25;;;17.40;36.30;;;;;;5452819;26;20227;-65
2024/04/22 02:58:45;;;;;;;4.28;1.45;;;17.40;36.30;;;;;;5453682;26;20278;-63
2024/04/22 03:01:13;;;;;;;6.13;1.60;;;17.40;36.30;;;;;;5453863;26;20223;-64
2024/04/22 03:03:39;;;;;;;3.50;1.42;;;17.40;36.20;;;;;;5453327;26;20228;-63
2024/04/22 03:06:10;;;;;;;2.80;1.10;;;17.40;36.20;;;;;;5453663;26;20267;-63
2024/04/22 03:08:37;;;;;;;4.68;1.20;;;17.40;36.30;;;;;;5453714;26;20568;-61
2024/04/22 03:11:06;;;;;;;2.40;1.27;;;17.40;36.20;;;;;;5452731;26;20262;-64
2024/04/22 03:13:32;;;;;;;2.00;1.00;;;17.40;36.30;;;;;;5452434;26;20216;-64
2024/04/22 03:16:00;;;;;;;3.60;1.20;;;17.40;36.30;;;;;;5453599;26;20332;-63
2024/04/22 03:18:26;;;;;;;3.53;1.58;;;17.40;36.20;;;;;;5453237;26;20255;-64
2024/04/22 03:20:55;;;;;;;2.10;1.30;;;17.40;36.20;;;;;;5453350;26;20239;-61
2024/04/22 03:23:23;;;;;;;5.07;1.67;;;17.40;36.90;;;;;;5453214;26;20223;-63
2024/04/22 03:25:52;;;;;;;3.55;1.45;;;17.40;36.20;;;;;;5452490;26;20228;-62
2024/04/22 03:28:18;;;;;;;1.60;1.10;;;17.40;36.20;;;;;;5453330;26;20258;-63
2024/04/22 03:30:46;;;;;;;5.30;1.60;;;17.30;36.10;;;;;;5453291;26;20240;-63
2024/04/22 03:33:13;;;;;;;2.45;1.20;;;17.40;36.20;;;;;;5452817;26;20224;-62
2024/04/22 03:35:42;;;;;;;3.97;1.40;;;17.40;36.90;;;;;;5453269;26;20247;-65
2024/04/22 03:38:10;;;;;;;2.75;1.48;;;17.40;36.20;;;;;;5453339;26;20332;-62
2024/04/22 03:40:41;;;;;;;4.88;1.42;;;17.40;36.20;;;;;;5452135;26;20232;-64
2024/04/22 03:43:09;;;;;;;3.15;1.15;;;17.40;36.90;;;;;;5453196;26;20215;-65
2024/04/22 03:45:38;;;;;;;3.70;1.40;;;17.40;36.20;;;;;;5453131;26;20239;-65
2024/04/22 03:50:51;;;;;;;2.63;1.27;;;17.30;36.10;;;;;;5455740;26;20270;-63
2024/04/22 03:53:20;;;;;;;3.97;1.20;;;17.40;36.20;;;;;;5452979;26;20622;-64
2024/04/22 03:55:51;;;;;;;2.67;1.20;;;17.30;36.70;;;;;;5451963;26;20266;-67
2024/04/22 03:58:19;;;;;;;3.25;1.25;;;17.30;36.10;;;;;;5452913;26;20259;-63
2024/04/22 04:00:45;;;;;;;3.70;1.65;;;17.40;36.20;;;;;;5452846;26;20227;-63
2024/04/22 04:03:14;;;;;;;2.65;1.35;;;17.40;36.80;;;;;;5452580;26;20224;-63
2024/04/22 04:05:40;;;;;;;3.03;1.30;;;17.30;36.10;;;;;;5452794;26;20237;-64
2024/04/22 04:08:09;;;;;;;5.22;1.40;;;17.30;36.10;;;;;;5452861;26;20291;-66
2024/04/22 04:10:35;;;;;;;5.00;1.80;;;17.30;36.10;;;;;;5451603;26;20232;-64
2024/04/22 04:13:06;;;;;;;2.97;1.40;;;17.30;36.10;;;;;;5452928;26;20600;-62
2024/04/22 04:15:33;;;;;;;3.30;1.30;;;17.40;36.10;;;;;;5452898;26;20270;-66
2024/04/22 04:18:02;;;;;;;2.17;1.50;;;17.30;36.00;;;;;;5452334;26;20227;-63
2024/04/22 04:20:28;;;;;;;1.80;1.17;;;17.30;36.00;;;;;;5452661;26;20243;-65
2024/04/22 04:22:56;;;;;;;3.60;1.30;;;17.30;36.00;;;;;;5452465;26;20227;-65
2024/04/22 04:25:22;;;;;;;3.42;1.50;;;17.30;36.00;;;;;;5451250;26;20634;-65
2024/04/22 04:27:51;;;;;;;2.83;1.38;;;17.30;36.00;;;;;;5452506;26;20227;-64
2024/04/22 04:30:19;;;;;;;3.05;1.10;;;17.30;36.00;;;;;;5452466;26;20227;-63
2024/04/22 04:32:47;;;;;;;4.70;1.85;;;17.30;36.00;;;;;;5452320;26;20710;-63
2024/04/22 04:35:13;;;;;;;5.28;1.30;;;17.30;36.70;;;;;;5452266;26;20232;-66
2024/04/22 04:37:42;;;;;;;2.67;1.20;;;17.30;36.00;;;;;;5452282;26;20262;-63
2024/04/22 04:40:09;;;;;;;4.20;1.13;;;17.30;36.00;;;;;;5451381;26;20240;-62
2024/04/22 04:42:37;;;;;;;3.67;1.30;;;17.30;36.00;;;;;;5452154;26;20232;-63
2024/04/22 04:45:04;;;;;;;2.88;1.30;;;17.30;36.70;;;;;;5452075;26;20239;-67
2024/04/22 04:47:35;;;;;;;3.63;1.20;;;17.30;36.00;;;;;;5452302;26;20219;-62
2024/04/22 04:50:01;;;;;;;4.55;1.30;;;17.30;36.70;;;;;;5452159;26;20224;-67
2024/04/22 04:52:29;;;;;;;1.67;1.30;;;17.30;36.00;;;;;;5452121;26;20224;-64
2024/04/22 04:54:55;;;;;;;5.18;1.30;;;17.30;36.70;;;;;;5450833;26;20267;-64
2024/04/22 04:57:23;;;;;;;1.65;1.20;;;17.30;36.00;;;;;;5451972;26;20236;-65
2024/04/22 04:59:50;;;;;;;5.47;1.35;;;17.30;35.90;;;;;;5451788;26;20232;-63
2024/04/22 05:02:18;;;;;;;2.78;1.40;;;17.30;35.90;;;;;;5451692;26;20305;-63
2024/04/22 05:04:49;;;;;;;3.25;1.23;;;17.30;35.90;;;;;;5451875;26;20274;-63
2024/04/22 05:07:17;;;;;;;4.80;1.40;;;17.30;35.90;;;;;;5451692;26;20266;-62
2024/04/22 05:09:43;;;;;;;2.72;1.50;;;17.30;36.60;;;;;;5450672;26;20224;-64
2024/04/22 05:12:12;;;;;;;2.15;1.40;;;17.30;35.90;;;;;;5451705;26;20258;-63
2024/04/22 05:14:38;;;;;;;5.30;1.48;;;17.20;36.50;;;;;;5451526;26;20227;-64
2024/04/22 05:17:06;;;;;;;2.53;1.50;;;17.30;35.90;;;;;;5451241;26;20263;-65
2024/04/22 05:19:32;;;;;;;4.28;1.65;;;17.20;35.80;;;;;;5451455;26;20722;-64
2024/04/22 05:22:03;;;;;;;1.63;1.20;;;17.30;35.90;;;;;;5451668;26;20258;-64
2024/04/22 05:24:29;;;;;;;4.25;1.70;;;17.30;36.60;;;;;;5450091;26;20232;-64
2024/04/22 05:26:58;;;;;;;4.47;1.48;;;17.20;35.80;;;;;;5451439;26;20224;-66
2024/04/22 05:29:24;;;;;;;3.45;1.45;;;17.20;35.80;;;;;;5451355;26;20262;-63
2024/04/22 05:31:52;;;;;;;3.75;1.30;;;17.30;36.50;;;;;;5451097;26;20231;-63
2024/04/22 05:37:08;;;;;;;2.83;1.52;;;17.20;35.80;;;;;;5455442;26;20320;-61
2024/04/22 05:39:36;;;;;;;2.08;1.50;;;17.20;35.80;;;;;;5453804;26;20284;-63
2024/04/22 05:42:05;;;;;;;2.10;1.60;;;17.20;35.80;;;;;;5454874;26;20254;-65
2024/04/22 05:44:33;;;;;;;4.03;1.38;;;17.20;35.80;;;;;;5454771;26;20578;-63
2024/04/22 05:47:02;;;;;;;2.00;1.30;;;17.20;35.80;;;;;;5454567;26;20706;-63
2024/04/22 05:49:31;;;;;;;3.90;1.70;;;17.20;35.80;;;;;;5454942;26;20232;-64
2024/04/22 05:51:59;;;;;;;1.63;1.20;;;17.20;35.80;;;;;;5454838;26;20215;-63
2024/04/22 05:54:28;;;;;;;3.53;1.42;;;17.20;35.80;;;;;;5453652;26;20413;-65
2024/04/22 05:56:56;;;;;;;3.58;1.60;;;17.20;35.70;;;;;;5455102;26;20263;-62
2024/04/22 05:59:23;;;;;;;1.38;1.25;;;17.20;35.70;;;;;;5454765;26;20271;-63
2024/04/22 06:01:51;;;;;;;3.53;1.65;;;17.20;36.40;;;;;;5454446;26;20726;-62
2024/04/22 06:04:17;;;;;;;2.55;1.50;;;17.20;36.40;;;;;;5454719;26;20270;-62
2024/04/22 06:06:46;;;;;;;2.55;1.30;;;17.20;35.70;;;;;;5454597;26;20227;-64
2024/04/22 06:09:12;;;;;;;2.95;1.70;;;17.20;35.70;;;;;;5453357;26;20224;-61
2024/04/22 06:11:44;;;;;;;4.57;1.90;;;17.20;36.40;;;;;;5454483;26;20563;-63
2024/04/22 06:14:10;;;;;;;3.80;1.50;;;17.20;35.70;;;;;;5454392;26;20243;-63
2024/04/22 06:16:38;;;;;;;5.68;1.58;;;17.20;35.70;;;;;;5454414;26;20255;-63
2024/04/22 06:19:04;;;;;;;3.38;1.45;;;17.20;35.70;;;;;;5454343;26;20228;-61
2024/04/22 06:21:33;;;;;;;2.05;1.38;;;17.20;35.70;;;;;;5454531;26;20259;-62
2024/04/22 06:23:59;;;;;;;2.53;1.20;;;17.20;35.70;;;;;;5453511;26;20270;-62
2024/04/22 06:26:27;;;;;;;3.10;1.80;;;17.20;35.70;;;;;;5454813;26;20574;-63
2024/04/22 06:28:56;;;;;;;3.60;1.52;;;17.20;36.40;;;;;;5454572;26;20706;-64
2024/04/22 06:31:24;;;;;;;4.00;1.38;;;17.20;35.80;;;;;;5454387;26;20224;-63
2024/04/22 06:33:50;;;;;;;4.00;1.42;;;17.20;35.70;;;;;;5454024;26;20250;-66
2024/04/22 06:36:19;;;;;;;4.95;2.22;;;17.20;35.70;;;;;;5454142;26;20265;-64
2024/04/22 06:38:45;;;;;;;3.90;1.33;;;17.20;35.70;;;;;;5452803;26;20224;-62
2024/04/22 06:41:14;;;;;;;3.78;1.70;;;17.20;35.70;;;;;;5433492;26;20232;-66
2024/04/22 06:43:39;;;;;;;2.47;1.60;;;17.20;35.70;;;;;;5451841;26;20765;-62
2024/04/22 06:46:11;;;;;;;4.90;1.55;;;17.20;35.70;;;;;;5451719;26;20270;-65
2024/04/22 06:48:37;;;;;;;2.75;1.50;;;17.30;35.80;;;;;;5450744;26;20227;-65
2024/04/22 06:51:06;;;;;;;4.32;1.70;;;17.30;35.80;;;;;;5452609;26;20302;-65
2024/04/22 06:53:32;;;;;;;4.38;1.42;;;17.30;35.80;;;;;;5450306;26;20224;-63
2024/04/22 06:56:01;;;;;;;3.88;1.42;;;17.40;35.80;;;;;;5452374;26;20625;-65
2024/04/22 06:58:27;;;;;;;7.28;1.70;;;17.40;35.70;;;;;;5452627;26;20232;-64
2024/04/22 07:00:55;;;;;;;3.63;1.70;;;17.40;35.70;;;;;;5451701;26;20239;-62
2024/04/22 07:03:24;;;;;;;2.78;1.20;;;17.50;35.70;;;;;;5445575;26;20780;-65
2024/04/22 07:05:52;;;;;;;2.55;1.50;;;17.50;35.70;;;;;;5426102;26;20307;-63
2024/04/22 07:08:19;;;;;;;3.50;1.52;;;17.50;35.70;;;;;;5417309;26;20291;-63
2024/04/22 07:10:48;;;;;;;4.70;1.23;;;17.60;35.80;;;;;;5439840;26;20239;-61
2024/04/22 07:13:15;;;;;;;2.65;1.42;;;17.60;35.80;;;;;;5444143;26;20368;-64
2024/04/22 07:15:43;;;;;;;5.97;1.80;;;17.70;35.80;;;;;;5383622;26;20235;-63
2024/04/22 07:18:09;;;;;;;2.63;1.40;;;17.70;35.90;;;;;;5446602;26;20564;-65
2024/04/22 07:20:41;;;;;;;4.32;1.60;;;17.70;35.90;;;;;;5440941;26;20296;-66
2024/04/22 07:23:07;;;;;;;2.63;1.17;;;17.70;35.90;;;;;;5444303;26;20228;-67
2024/04/22 07:25:37;;;;;;;4.38;1.50;;;17.70;35.80;;;;;;5445414;26;20244;-64
2024/04/22 07:28:03;;;;;;;4.63;2.03;;;17.70;35.80;;;;;;5433220;26;20266;-65
2024/04/22 07:30:32;;;;;;;2.55;1.33;;;17.70;35.80;;;;;;5446415;26;20776;-64
2024/04/22 07:32:59;;;;;;;3.15;1.20;;;17.80;35.80;;;;;;5446002;26;20228;-66
2024/04/22 07:35:28;;;;;;;2.53;1.30;;;17.80;35.80;;;;;;5446297;26;20299;-63
2024/04/22 07:37:58;;;;;;;3.28;1.30;;;17.80;35.80;;;;;;5444815;26;20270;-63
2024/04/22 07:40:27;;;;;;;3.10;1.50;;;17.90;35.80;;;;;;5437730;26;20302;-64
2024/04/22 07:42:53;;;;;;;5.10;1.50;;;17.90;35.70;;;;;;5446167;26;20228;-62
2024/04/22 07:45:23;;;;;;;3.40;1.45;;;17.90;35.70;;;;;;5445435;26;20235;-63
2024/04/22 07:47:51;;;;;;;3.95;1.30;;;17.90;35.70;;;;;;5445959;26;20287;-63
2024/04/22 07:50:21;;;;;;;6.13;1.73;;;17.90;35.60;;;;;;5446206;26;21164;-66
2024/04/22 07:52:49;;;;;;;4.40;1.83;;;18.00;35.60;;;;;;5443365;26;20227;-64
2024/04/22 07:55:22;;;;;;;3.42;1.60;;;18.00;35.60;;;;;;5444838;26;20295;-64
2024/04/22 07:57:49;;;;;;;4.72;1.50;;;18.00;35.60;;;;;;5445068;26;20228;-62
2024/04/22 08:00:19;;;;;;;3.15;1.20;;;18.00;35.60;;;;;;5438247;26;20243;-63
2024/04/22 08:02:47;;;;;;;5.68;1.35;;;18.10;35.60;;;;;;5444902;26;20591;-63
2024/04/22 08:05:16;;;;;;;4.05;1.50;;;18.00;35.60;;;;;;5442700;26;20294;-63
2024/04/22 08:07:46;;;;;;;3.08;1.40;;;18.10;36.30;;;;;;5444012;26;20224;-62
2024/04/22 08:10:15;;;;;;;3.53;1.42;;;18.10;35.60;;;;;;5444859;26;20274;-66
2024/04/22 08:12:43;;;;;;;5.70;1.55;;;18.10;35.60;;;;;;5443523;26;20271;-65
2024/04/22 08:15:12;;;;;;;2.78;1.30;;;18.10;35.60;;;;;;5442204;26;20309;-61
2024/04/22 08:17:38;;;;;;;2.88;1.30;;;18.10;35.60;;;;;;5444708;26;20228;-64
2024/04/22 08:20:07;;;;;;;3.92;1.60;;;18.20;35.60;;;;;;5443431;26;20283;-62
2024/04/22 08:22:33;;;;;;;1.67;1.30;;;18.20;35.60;;;;;;5443565;26;20220;-62
2024/04/22 08:25:03;;;;;;;3.33;1.00;;;18.10;35.60;;;;;;5442799;26;20738;-62
2024/04/22 08:27:29;;;;;;;3.78;1.42;;;18.20;35.80;;;;;;5445695;26;20279;-64
2024/04/22 08:30:01;;;;;;;2.05;1.10;;;18.20;35.80;;;;;;5444840;26;20286;-65
2024/04/22 08:32:29;;;;;;;3.63;1.33;;;18.20;35.90;;;;;;5444795;26;20220;-61
2024/04/22 08:34:55;;;;;;;4.85;1.50;;;18.20;35.80;;;;;;5443946;26;20345;-63
2024/04/22 08:37:24;;;;;;;5.72;1.50;;;18.20;35.80;;;;;;5444696;26;20236;-62
2024/04/22 08:39:50;;;;;;;3.03;1.60;;;18.30;36.50;;;;;;5444006;26;20232;-67
2024/04/22 08:42:19;;;;;;;8.85;1.65;;;18.30;36.50;;;;;;5445061;26;20240;-64
2024/04/22 08:44:47;;;;;;;4.13;1.35;;;18.30;36.00;;;;;;5444043;26;20232;-63
2024/04/22 08:47:18;;;;;;;16.27;2.17;;;18.30;35.90;;;;;;5445460;26;20654;-65
2024/04/22 08:49:44;;;;;;;7.07;1.58;;;18.30;36.10;;;;;;5445112;26;20282;-63
2024/04/22 08:52:13;;;;;;;11.60;1.63;;;18.30;36.10;;;;;;5443658;26;20236;-66
2024/04/22 08:54:39;;;;;;;10.50;1.88;;;18.40;36.80;;;;;;5439924;26;20272;-67
2024/04/22 08:57:08;;;;;;;13.15;1.30;;;18.40;36.20;;;;;;5426124;26;20232;-64
2024/04/22 08:59:34;;;;;;;6.47;1.90;;;18.40;36.30;;;;;;5434294;26;20231;-62
2024/04/22 09:02:03;;;;;;;9.85;1.55;;;18.40;37.40;;;;;;5447816;26;20567;-61
2024/04/22 09:04:32;;;;;;;9.40;1.33;;;18.40;37.10;;;;;;5445534;26;20231;-62
2024/04/22 09:07:02;;;;;;;4.60;1.50;;;18.50;37.60;;;;;;5442547;26;20359;-63
2024/04/22 09:09:28;;;;;;;14.40;2.95;;;18.50;37.90;;;;;;5442375;26;20231;-63
2024/04/22 09:11:57;;;;;;;83.03;29.98;;;18.50;38.30;;;;;;5436658;26;20823;-61
2024/04/22 09:14:25;;;;;;;55.15;22.73;;;18.50;38.30;;;;;;5438296;26;20270;-63
2024/04/22 09:16:53;;;;;;;53.95;20.70;;;18.50;38.20;;;;;;5446955;26;20273;-61
2024/04/22 09:19:20;;;;;;;65.22;23.25;;;18.50;38.40;;;;;;5446162;26;20244;-60
2024/04/22 09:21:52;;;;;;;49.03;20.08;;;18.50;38.50;;;;;;5445178;26;20256;-60
2024/04/22 09:24:19;;;;;;;53.10;19.77;;;18.60;39.30;;;;;;5445181;26;20764;-62
2024/04/22 09:26:49;;;;;;;47.55;16.98;;;18.60;38.40;;;;;;5446715;26;20286;-61
2024/04/22 09:29:18;;;;;;;38.42;16.33;;;18.60;38.40;;;;;;5445220;26;20235;-60
2024/04/22 09:31:50;;;;;;;35.08;14.85;;;18.60;38.40;;;;;;5443711;26;20236;-62
2024/04/22 09:34:22;;;;;;;37.25;14.68;;;18.60;38.30;;;;;;5445177;26;20641;-59
2024/04/22 09:36:54;;;;;;;40.83;14.13;;;18.60;38.30;;;;;;5444532;26;20239;-60
2024/04/22 09:39:21;;;;;;;34.20;12.57;;;18.60;38.30;;;;;;5433362;26;20236;-60
2024/04/22 09:41:51;;;;;;;28.05;11.35;;;18.70;38.30;;;;;;5445108;26;20681;-60
2024/04/22 09:44:18;;;;;;;29.13;10.13;;;18.70;38.20;;;;;;5443176;26;20768;-60
2024/04/22 09:46:50;;;;;;;21.95;9.75;;;18.70;38.00;;;;;;5445266;26;20235;-62
2024/04/22 09:49:18;;;;;;;22.33;9.55;;;18.70;38.00;;;;;;5444563;26;20239;-62
2024/04/22 09:51:47;;;;;;;20.60;8.20;;;18.70;37.90;;;;;;5443916;26;20606;-61
2024/04/22 09:54:16;;;;;;;16.08;7.28;;;18.70;37.80;;;;;;5445674;26;20247;-64
2024/04/22 09:56:48;;;;;;;20.73;7.95;;;18.70;37.80;;;;;;5445981;26;20232;-63
2024/04/22 09:59:16;;;;;;;19.95;6.53;;;18.80;38.40;;;;;;5444746;26;20247;-63
2024/04/22 10:01:44;;;;;;;16.55;6.35;;;18.80;37.70;;;;;;5443769;26;20821;-61
2024/04/22 10:04:12;;;;;;;13.88;5.88;;;18.80;37.70;;;;;;5445949;26;20579;-65
2024/04/22 10:06:40;;;;;;;13.85;5.47;;;18.80;37.60;;;;;;5445647;26;20236;-64
2024/04/22 10:09:06;;;;;;;13.15;5.13;;;18.80;37.70;;;;;;5445294;26;20227;-64
2024/04/22 10:11:38;;;;;;;14.60;5.60;;;18.80;37.60;;;;;;5446157;26;20744;-62
2024/04/22 10:14:08;;;;;;;8.32;4.35;;;18.80;37.60;;;;;;5438202;26;20228;-63
2024/04/22 10:16:37;;;;;;;8.57;3.88;;;18.80;37.50;;;;;;5446198;26;20375;-63
2024/04/22 10:19:03;;;;;;;8.95;3.88;;;18.80;37.40;;;;;;5446215;26;20228;-65
2024/04/22 10:21:31;;;;;;;11.20;3.65;;;18.70;37.40;;;;;;5445037;26;20235;-63
2024/04/22 10:23:57;;;;;;;10.25;3.97;;;18.70;37.30;;;;;;5433924;26;21266;-62
2024/04/22 10:26:26;;;;;;;12.60;4.15;;;18.80;37.40;;;;;;5426846;26;20499;-63
2024/04/22 10:28:57;;;;;;;9.13;3.63;;;18.80;37.30;;;;;;5440971;26;20231;-62
2024/04/22 10:31:25;;;;;;;13.52;3.30;;;18.80;37.20;;;;;;5435558;26;20236;-63
2024/04/22 10:33:51;;;;;;;7.38;3.20;;;18.80;37.10;;;;;;5442336;26;20266;-65
2024/04/22 10:36:20;;;;;;;8.70;3.50;;;18.80;37.10;;;;;;5441078;26;20291;-64
2024/04/22 10:38:46;;;;;;;7.43;2.35;;;18.80;37.10;;;;;;5441730;26;20363;-62
2024/04/22 10:41:15;;;;;;;7.10;3.10;;;18.80;37.10;;;;;;5440152;26;20714;-65
2024/04/22 10:43:42;;;;;;;5.90;2.58;;;18.80;36.80;;;;;;5441387;26;20228;-62
2024/04/22 10:46:14;;;;;;;7.05;2.72;;;18.90;37.00;;;;;;5442453;26;20639;-63
2024/04/22 10:48:40;;;;;;;8.60;2.15;;;18.80;36.80;;;;;;5432997;26;20239;-65
2024/04/22 10:51:12;;;;;;;9.20;2.65;;;18.80;36.80;;;;;;5439649;26;20286;-65
2024/04/22 10:53:38;;;;;;;9.60;2.80;;;18.80;36.80;;;;;;5444702;26;20270;-65
2024/04/22 10:56:07;;;;;;;5.15;2.30;;;18.80;36.80;;;;;;5443739;26;20239;-64
2024/04/22 10:58:33;;;;;;;4.90;2.38;;;18.80;36.80;;;;;;5441976;26;20232;-63
2024/04/22 11:01:02;;;;;;;4.57;1.92;;;18.80;36.80;;;;;;5444240;26;20618;-65
2024/04/22 11:03:31;;;;;;;7.57;2.22;;;18.90;36.80;;;;;;5435833;26;20228;-62
2024/04/22 11:06:02;;;;;;;4.88;2.20;;;18.80;36.60;;;;;;5444843;26;20589;-61
2024/04/22 11:08:29;;;;;;;5.82;2.05;;;18.80;36.60;;;;;;5444167;26;20608;-62
2024/04/22 11:10:59;;;;;;;6.18;1.80;;;18.80;36.60;;;;;;5445335;26;20239;-62
2024/04/22 11:13:25;;;;;;;5.30;1.92;;;18.80;36.60;;;;;;5436143;26;20229;-61
2024/04/22 11:15:54;;;;;;;4.97;1.98;;;18.80;36.50;;;;;;5444217;26;20269;-63
2024/04/22 11:18:21;;;;;;;5.22;1.98;;;18.80;36.40;;;;;;5444909;26;20235;-63
2024/04/22 11:20:52;;;;;;;6.25;2.10;;;18.90;36.60;;;;;;5444592;26;20950;-64
2024/04/22 11:23:18;;;;;;;6.50;1.77;;;18.90;36.60;;;;;;5435904;26;20227;-65
2024/04/22 11:25:46;;;;;;;4.43;1.80;;;18.90;36.50;;;;;;5443566;26;20582;-64
2024/04/22 11:28:12;;;;;;;5.00;1.60;;;18.90;36.50;;;;;;5442384;26;20228;-63
2024/04/22 11:30:41;;;;;;;3.20;1.70;;;18.90;36.50;;;;;;5444528;26;20291;-63
2024/04/22 11:33:07;;;;;;;6.97;1.77;;;18.90;36.60;;;;;;5443926;26;20274;-63
2024/04/22 11:35:37;;;;;;;4.18;1.75;;;18.90;36.70;;;;;;5442718;26;20612;-60
2024/04/22 11:38:14;;;;;;;7.13;1.75;;;18.90;36.70;;;;;;5443180;26;20231;-63
2024/04/22 11:40:43;;;;;;;5.30;1.90;;;18.90;36.70;;;;;;5439536;26;20243;-61
2024/04/22 11:43:09;;;;;;;6.43;2.20;;;18.90;36.60;;;;;;5443755;26;20283;-60
2024/04/22 11:45:38;;;;;;;3.20;1.70;;;19.00;37.30;;;;;;5442591;26;20287;-59
2024/04/22 11:48:04;;;;;;;4.10;1.70;;;18.90;36.60;;;;;;5442211;26;20228;-60
2024/04/22 11:50:34;;;;;;;4.03;1.60;;;18.90;36.50;;;;;;5443102;26;20240;-59
2024/04/22 11:53:00;;;;;;;4.78;1.73;;;19.00;36.50;;;;;;5443543;26;20243;-60
2024/04/22 11:55:31;;;;;;;4.65;2.13;;;18.90;36.40;;;;;;5444084;26;20240;-60
2024/04/22 11:57:57;;;;;;;6.38;1.88;;;19.00;36.40;;;;;;5432805;26;20639;-59
2024/04/22 12:00:26;;;;;;;3.58;1.60;;;19.00;36.40;;;;;;5442126;26;20427;-63
2024/04/22 12:02:52;;;;;;;2.20;1.42;;;19.00;36.50;;;;;;5438787;26;20753;-59
2024/04/22 12:05:20;;;;;;;3.85;1.80;;;19.00;36.40;;;;;;5441646;26;20240;-60
2024/04/22 12:07:46;;;;;;;4.15;1.63;;;19.00;36.40;;;;;;5414271;26;20265;-59
2024/04/22 12:10:15;;;;;;;3.28;1.50;;;19.00;36.50;;;;;;5428906;26;20270;-58
2024/04/22 12:12:44;;;;;;;5.97;1.80;;;19.00;36.50;;;;;;5435023;26;20224;-61
2024/04/22 12:15:13;;;;;;;6.05;1.70;;;19.00;36.40;;;;;;5434656;26;20244;-61
2024/04/22 12:17:39;;;;;;;2.30;1.38;;;19.10;36.50;;;;;;5435585;26;20243;-61
2024/04/22 12:20:08;;;;;;;7.57;1.60;;;19.00;36.30;;;;;;5433413;26;20239;-61
2024/04/22 12:22:34;;;;;;;4.40;1.52;;;19.10;36.40;;;;;;5436353;26;20236;-62
2024/04/22 12:25:02;;;;;;;2.60;1.35;;;19.00;36.90;;;;;;5438722;26;20286;-60
2024/04/22 12:27:28;;;;;;;4.13;1.70;;;19.10;36.20;;;;;;5435869;26;20757;-60
2024/04/22 12:29:59;;;;;;;3.88;1.38;;;19.00;36.10;;;;;;5436209;26;20286;-60
2024/04/22 12:32:27;;;;;;;3.20;1.48;;;19.00;36.10;;;;;;5424974;26;20270;-64
2024/04/22 12:34:57;;;;;;;3.50;1.60;;;19.10;36.20;;;;;;5433483;26;20835;-63
2024/04/22 12:37:23;;;;;;;5.35;1.58;;;19.10;36.00;;;;;;5430483;26;20299;-63
2024/04/22 12:39:51;;;;;;;4.18;1.60;;;19.00;35.90;;;;;;5433168;26;20341;-62
2024/04/22 12:42:17;;;;;;;4.85;1.58;;;19.10;35.90;;;;;;5438060;26;20228;-64
2024/04/22 12:44:46;;;;;;;3.85;1.48;;;19.00;35.70;;;;;;5434080;26;20233;-61
2024/04/22 12:52:46;;;;;;;3.47;1.45;;;19.10;36.80;;;;;;5435733;26;20262;-62
2024/04/22 12:55:14;;;;;;;1.88;1.25;;;19.10;36.00;;;;;;5431911;26;20578;-61
2024/04/22 12:57:43;;;;;;;4.25;1.40;;;19.10;36.00;;;;;;5436998;26;20243;-61
2024/04/22 13:00:13;;;;;;;3.10;1.40;;;19.10;35.90;;;;;;5438196;26;20839;-62